createdAt,value
2023-02-08T00:01:20.224Z,23.90
2023-02-08T00:03:49.154Z,24.17
2023-02-08T00:06:18.033Z,23.90
2023-02-08T00:08:46.696Z,23.60
2023-02-08T00:11:14.865Z,23.40
2023-02-08T00:13:44.302Z,24.80
2023-02-08T00:16:14.202Z,23.20
2023-02-08T00:18:42.683Z,24.67
2023-02-08T00:21:11.792Z,23.10
2023-02-08T00:23:40.100Z,22.47
2023-02-08T00:26:08.466Z,23.10
2023-02-08T00:28:36.758Z,22.70
2023-02-08T00:31:06.661Z,23.77
2023-02-08T00:33:34.939Z,22.80
2023-02-08T00:36:04.115Z,23.90
2023-02-08T00:38:32.760Z,22.97
2023-02-08T00:41:02.057Z,22.83
2023-02-08T00:43:30.233Z,23.20
2023-02-08T00:45:59.756Z,23.07
2023-02-08T00:48:29.569Z,23.50
2023-02-08T00:51:01.988Z,23.63
2023-02-08T00:53:30.251Z,22.90
2023-02-08T00:55:58.328Z,23.57
2023-02-08T00:58:26.477Z,24.10
2023-02-08T01:00:55.093Z,27.27
2023-02-08T01:03:24.528Z,25.20
2023-02-08T01:05:54.391Z,25.13
2023-02-08T01:08:22.503Z,24.20
2023-02-08T01:10:50.636Z,26.43
2023-02-08T01:13:18.680Z,24.87
2023-02-08T01:15:46.734Z,25.13
2023-02-08T01:18:14.689Z,25.00
2023-02-08T01:20:42.794Z,25.20
2023-02-08T01:23:12.781Z,25.63
2023-02-08T01:25:41.872Z,26.80
2023-02-08T01:28:09.967Z,26.70
2023-02-08T01:30:38.867Z,25.37
2023-02-08T01:33:07.324Z,26.97
2023-02-08T01:35:35.501Z,27.00
2023-02-08T01:38:03.684Z,27.33
2023-02-08T01:40:33.113Z,27.37
2023-02-08T01:43:01.223Z,28.40
2023-02-08T01:45:31.938Z,29.50
2023-02-08T01:48:05.742Z,28.73
2023-02-08T01:50:39.142Z,29.20
2023-02-08T01:53:07.655Z,28.80
2023-02-08T01:55:44.099Z,28.67
2023-02-08T01:58:13.913Z,30.10
2023-02-08T02:00:42.415Z,28.67
2023-02-08T02:03:10.870Z,28.53
2023-02-08T02:05:43.498Z,29.43
2023-02-08T02:08:13.529Z,27.90
2023-02-08T02:10:43.750Z,28.03
2023-02-08T02:13:14.710Z,27.57
2023-02-08T02:15:45.235Z,28.27
2023-02-08T02:18:14.899Z,28.77
2023-02-08T02:21:21.795Z,28.63
2023-02-08T02:24:29.705Z,29.70
2023-02-08T02:27:24.931Z,31.13
2023-02-08T02:30:30.127Z,28.90
2023-02-08T02:33:15.633Z,29.63
2023-02-08T02:35:49.745Z,29.33
2023-02-08T02:38:31.236Z,30.27
2023-02-08T02:41:07.911Z,34.77
2023-02-08T02:43:50.829Z,33.53
2023-02-08T02:46:25.776Z,37.10
2023-02-08T02:49:02.607Z,38.47
2023-02-08T02:51:37.908Z,43.10
2023-02-08T02:54:11.500Z,41.73
2023-02-08T02:56:43.844Z,43.03
2023-02-08T02:59:13.837Z,43.20
2023-02-08T03:01:44.238Z,45.43
2023-02-08T03:04:19.522Z,46.27
2023-02-08T03:07:01.050Z,47.00
2023-02-08T03:09:53.870Z,48.60
2023-02-08T03:12:32.065Z,50.80
2023-02-08T03:15:18.283Z,54.23
2023-02-08T03:18:02.950Z,58.90
2023-02-08T03:20:34.613Z,61.20
2023-02-08T03:23:09.469Z,61.50
2023-02-08T03:25:51.625Z,62.83
2023-02-08T03:28:25.088Z,66.00
2023-02-08T03:30:58.718Z,67.77
2023-02-08T03:33:31.838Z,69.80
2023-02-08T03:36:05.928Z,73.53
2023-02-08T03:38:37.862Z,75.57
2023-02-08T03:41:10.034Z,78.87
2023-02-08T03:43:42.033Z,82.43
2023-02-08T03:46:15.061Z,80.07
2023-02-08T03:48:48.939Z,74.57
2023-02-08T03:51:21.474Z,74.83
2023-02-08T03:53:50.622Z,70.33
2023-02-08T03:56:27.993Z,70.83
2023-02-08T03:59:02.641Z,72.27
2023-02-08T04:01:36.689Z,68.43
2023-02-08T04:04:05.622Z,69.10
2023-02-08T04:06:35.173Z,68.03
2023-02-08T04:09:03.293Z,62.67
2023-02-08T04:11:31.494Z,62.97
2023-02-08T04:13:59.636Z,60.87
2023-02-08T04:16:27.833Z,59.40
2023-02-08T04:18:55.742Z,59.40
2023-02-08T04:21:24.011Z,58.93
2023-02-08T04:23:53.594Z,56.70
2023-02-08T04:26:21.782Z,55.93
2023-02-08T04:28:49.894Z,55.73
2023-02-08T04:31:18.024Z,55.83
2023-02-08T04:33:46.127Z,54.67
2023-02-08T04:36:14.459Z,53.07
2023-02-08T04:38:42.562Z,53.30
2023-02-08T04:41:12.030Z,51.97
2023-02-08T04:43:40.178Z,50.00
2023-02-08T04:46:08.496Z,50.90
2023-02-08T04:48:36.567Z,49.67
2023-02-08T04:51:05.639Z,50.13
2023-02-08T04:53:33.846Z,51.63
2023-02-08T04:56:02.145Z,53.27
2023-02-08T04:58:31.578Z,54.50
2023-02-08T05:00:59.706Z,57.83
2023-02-08T05:03:27.730Z,57.57
2023-02-08T05:05:59.010Z,58.93
2023-02-08T05:08:27.751Z,56.70
2023-02-08T05:10:56.854Z,55.50
2023-02-08T05:13:25.035Z,55.53
2023-02-08T05:15:54.592Z,54.40
2023-02-08T05:18:22.651Z,51.20
2023-02-08T05:20:56.091Z,51.03
2023-02-08T05:23:24.347Z,49.27
2023-02-08T05:25:52.789Z,48.83
2023-02-08T05:28:21.303Z,50.77
2023-02-08T05:30:49.961Z,47.50
2023-02-08T05:33:19.798Z,46.17
2023-02-08T05:35:47.884Z,46.40
2023-02-08T05:38:15.976Z,46.13
2023-02-08T05:40:44.108Z,45.83
2023-02-08T05:43:12.257Z,46.13
2023-02-08T05:45:40.351Z,48.10
2023-02-08T05:48:08.482Z,47.30
2023-02-08T05:50:38.012Z,46.33
2023-02-08T05:53:06.280Z,48.90
2023-02-08T05:55:34.398Z,47.50
2023-02-08T05:58:02.680Z,48.80
2023-02-08T06:00:30.803Z,49.40
2023-02-08T06:02:59.509Z,50.80
2023-02-08T06:05:27.612Z,53.97
2023-02-08T06:07:57.044Z,51.13
2023-02-08T06:10:25.191Z,52.23
2023-02-08T06:12:53.226Z,53.50
2023-02-08T06:15:21.349Z,53.53
2023-02-08T06:17:49.372Z,53.67
2023-02-08T06:20:17.995Z,54.23
2023-02-08T06:22:46.181Z,53.10
2023-02-08T06:25:16.050Z,54.07
2023-02-08T06:27:44.128Z,53.20
2023-02-08T06:30:13.142Z,53.60
2023-02-08T06:32:41.337Z,52.20
2023-02-08T06:35:10.220Z,51.40
2023-02-08T06:37:38.706Z,51.30
2023-02-08T06:40:08.234Z,47.27
2023-02-08T06:42:37.796Z,47.00
2023-02-08T06:45:08.341Z,46.40
2023-02-08T06:47:36.716Z,45.30
2023-02-08T06:50:05.038Z,45.33
2023-02-08T06:52:33.583Z,40.50
2023-02-08T06:55:01.642Z,41.97
2023-02-08T06:57:29.718Z,40.07
2023-02-08T06:59:59.378Z,42.47
2023-02-08T07:02:27.758Z,41.20
2023-02-08T07:04:55.983Z,42.17
2023-02-08T07:07:24.076Z,42.30
2023-02-08T07:09:52.240Z,40.90
2023-02-08T07:12:20.401Z,39.57
2023-02-08T07:14:48.450Z,40.27
2023-02-08T07:17:17.928Z,41.43
2023-02-08T07:19:46.046Z,41.33
2023-02-08T07:22:14.069Z,43.80
2023-02-08T07:24:43.697Z,44.90
2023-02-08T07:27:14.191Z,44.20
2023-02-08T07:29:42.640Z,43.47
2023-02-08T07:32:11.694Z,40.13
2023-02-08T07:34:41.522Z,40.40
2023-02-08T07:37:09.694Z,38.23
2023-02-08T07:39:37.847Z,38.17
2023-02-08T07:42:06.662Z,37.10
2023-02-08T07:44:35.073Z,36.27
2023-02-08T07:47:03.089Z,36.90
2023-02-08T07:49:31.346Z,36.20
2023-02-08T07:52:01.914Z,36.10
2023-02-08T07:54:31.049Z,36.20
2023-02-08T07:57:01.194Z,35.73
2023-02-08T07:59:30.514Z,36.70
2023-02-08T08:01:58.655Z,36.30
2023-02-08T08:04:26.706Z,35.90
2023-02-08T08:06:54.781Z,36.70
2023-02-08T08:09:24.359Z,36.57
2023-02-08T08:11:52.557Z,34.43
2023-02-08T08:14:20.705Z,34.90
2023-02-08T08:16:48.878Z,35.07
2023-02-08T08:19:17.055Z,33.10
2023-02-08T08:21:45.203Z,32.23
2023-02-08T08:24:13.390Z,29.20
2023-02-08T08:26:42.832Z,29.00
2023-02-08T08:29:10.905Z,28.97
2023-02-08T08:31:39.064Z,26.00
2023-02-08T08:34:07.216Z,24.30
2023-02-08T08:36:35.287Z,24.50
2023-02-08T08:39:03.362Z,24.60
2023-02-08T08:41:31.521Z,23.80
2023-02-08T08:44:00.975Z,24.33
2023-02-08T08:46:29.184Z,25.80
2023-02-08T08:48:57.423Z,22.77
2023-02-08T08:51:25.507Z,23.50
2023-02-08T08:53:53.594Z,23.10
2023-02-08T08:56:21.604Z,22.90
2023-02-08T08:58:49.741Z,22.03
2023-02-08T09:01:19.322Z,21.70
2023-02-08T09:03:47.759Z,20.77
2023-02-08T09:06:15.943Z,20.53
2023-02-08T09:08:44.216Z,20.53
2023-02-08T09:11:15.621Z,20.23
2023-02-08T09:13:44.355Z,20.50
2023-02-08T09:16:15.396Z,20.60
2023-02-08T09:18:45.588Z,20.23
2023-02-08T09:21:15.545Z,20.20
2023-02-08T09:23:44.332Z,21.57
2023-02-08T09:26:14.341Z,20.90
2023-02-08T09:28:42.701Z,20.87
2023-02-08T09:31:11.908Z,22.70
2023-02-08T09:33:40.478Z,20.20
2023-02-08T09:36:10.928Z,20.30
2023-02-08T09:38:39.844Z,19.80
2023-02-08T09:41:23.566Z,20.00
2023-02-08T09:43:57.513Z,19.47
2023-02-08T09:46:28.816Z,19.80
2023-02-08T09:49:01.792Z,19.60
2023-02-08T09:51:37.088Z,19.70
2023-02-08T09:54:09.938Z,19.90
2023-02-08T09:56:42.806Z,19.87
2023-02-08T09:59:17.470Z,19.07
2023-02-08T10:01:46.799Z,19.70
2023-02-08T10:04:22.836Z,19.50
2023-02-08T10:06:54.206Z,18.90
2023-02-08T10:09:27.253Z,19.30
2023-02-08T10:12:06.445Z,19.20
2023-02-08T10:15:00.158Z,19.40
2023-02-08T10:17:45.209Z,20.13
2023-02-08T10:20:34.678Z,19.03
2023-02-08T10:23:21.187Z,19.27
2023-02-08T10:26:11.664Z,22.00
2023-02-08T10:29:12.547Z,20.57
2023-02-08T10:31:53.910Z,19.23
2023-02-08T10:34:36.369Z,20.00
2023-02-08T10:37:12.605Z,19.30
2023-02-08T10:39:42.103Z,19.70
2023-02-08T10:42:15.733Z,19.57
2023-02-08T10:44:57.201Z,19.60
2023-02-08T10:47:40.114Z,19.80
2023-02-08T10:50:17.021Z,19.67
2023-02-08T10:52:45.168Z,19.30
2023-02-08T10:55:17.692Z,19.50
2023-02-08T10:57:48.106Z,20.90
2023-02-08T11:00:20.838Z,18.70
2023-02-08T11:02:52.771Z,18.93
2023-02-08T11:05:31.976Z,20.43
2023-02-08T11:08:08.009Z,20.80
2023-02-08T11:10:38.200Z,20.20
2023-02-08T11:13:16.530Z,18.70
2023-02-08T11:15:48.035Z,18.70
2023-02-08T11:18:23.605Z,20.17
2023-02-08T11:20:54.490Z,18.83
2023-02-08T11:23:26.574Z,19.63
2023-02-08T11:26:14.100Z,22.63
2023-02-08T11:28:42.498Z,18.93
2023-02-08T11:31:19.027Z,19.00
2023-02-08T11:34:01.813Z,19.37
2023-02-08T11:36:32.602Z,19.20
2023-02-08T11:39:04.144Z,22.67
2023-02-08T11:41:34.221Z,19.50
2023-02-08T11:44:05.475Z,19.50
2023-02-08T11:46:36.083Z,19.23
2023-02-08T11:49:04.686Z,19.40
2023-02-08T11:51:35.761Z,19.20
2023-02-08T11:54:05.441Z,20.07
2023-02-08T11:56:35.679Z,18.60
2023-02-08T11:59:07.777Z,18.47
2023-02-08T12:01:37.982Z,19.20
2023-02-08T12:04:08.651Z,19.60
2023-02-08T12:07:06.607Z,20.27
2023-02-08T12:10:10.060Z,19.40
2023-02-08T12:12:51.094Z,18.73
2023-02-08T12:15:29.577Z,18.77
2023-02-08T12:18:18.970Z,18.53
2023-02-08T12:20:48.020Z,18.97
2023-02-08T12:23:31.136Z,18.67
2023-02-08T12:26:07.761Z,19.60
2023-02-08T12:28:51.384Z,18.63
2023-02-08T12:31:28.888Z,19.60
2023-02-08T12:34:09.732Z,19.00
2023-02-08T12:36:49.124Z,18.90
2023-02-08T12:39:49.043Z,19.80
2023-02-08T12:42:35.605Z,19.30
2023-02-08T12:45:25.859Z,19.47
2023-02-08T12:48:06.242Z,18.70
2023-02-08T12:50:41.968Z,18.13
2023-02-08T12:53:18.448Z,18.60
2023-02-08T12:55:49.917Z,18.40
2023-02-08T12:58:29.395Z,18.50
2023-02-08T13:01:21.259Z,18.40
2023-02-08T13:03:52.823Z,18.20
2023-02-08T13:06:24.996Z,18.70
2023-02-08T13:08:58.515Z,21.27
2023-02-08T13:11:37.487Z,18.93
2023-02-08T13:14:12.946Z,18.50
2023-02-08T13:16:46.686Z,18.87
2023-02-08T13:19:25.957Z,23.50
2023-02-08T13:21:55.542Z,18.53
2023-02-08T13:24:36.300Z,19.00
2023-02-08T13:27:07.067Z,20.60
2023-02-08T13:29:36.959Z,20.87
2023-02-08T13:32:09.990Z,18.40
2023-02-08T13:34:41.854Z,18.87
2023-02-08T13:37:25.486Z,19.00
2023-02-08T13:40:02.513Z,18.10
2023-02-08T13:42:34.555Z,17.93
2023-02-08T13:45:04.030Z,18.70
2023-02-08T13:47:37.895Z,18.50
2023-02-08T13:50:29.199Z,18.10
2023-02-08T13:52:57.494Z,18.30
2023-02-08T13:55:53.345Z,19.13
2023-02-08T13:59:04.530Z,18.20
2023-02-08T14:01:34.135Z,18.00
2023-02-08T14:04:33.939Z,17.93
2023-02-08T14:07:22.957Z,18.37
2023-02-08T14:10:05.617Z,18.33
2023-02-08T14:12:40.991Z,17.97
2023-02-08T14:15:27.622Z,18.50
2023-02-08T14:17:59.460Z,17.83
2023-02-08T14:20:33.701Z,18.00
2023-02-08T14:23:04.435Z,17.73
2023-02-08T14:25:42.998Z,18.33
2023-02-08T14:28:26.218Z,17.90
2023-02-08T14:30:57.179Z,18.60
2023-02-08T14:33:28.118Z,17.63
2023-02-08T14:36:00.540Z,18.20
2023-02-08T14:39:06.334Z,18.77
2023-02-08T14:41:49.632Z,19.37
2023-02-08T14:44:54.257Z,18.33
2023-02-08T14:47:54.509Z,18.70
2023-02-08T14:50:29.061Z,18.20
2023-02-08T14:53:14.092Z,18.40
2023-02-08T14:55:48.349Z,18.20
2023-02-08T14:58:26.890Z,17.53
2023-02-08T15:00:56.838Z,18.10
2023-02-08T15:03:25.628Z,18.30
2023-02-08T15:06:27.117Z,18.20
2023-02-08T15:08:57.096Z,17.97
2023-02-08T15:11:27.460Z,18.37
2023-02-08T15:14:00.636Z,18.57
2023-02-08T15:16:35.644Z,19.07
2023-02-08T15:19:06.745Z,18.50
2023-02-08T15:21:37.315Z,18.63
2023-02-08T15:24:16.024Z,19.00
2023-02-08T15:26:48.333Z,19.60
2023-02-08T15:29:26.142Z,18.70
2023-02-08T15:31:58.899Z,18.40
2023-02-08T15:34:27.585Z,18.03
2023-02-08T15:36:57.582Z,18.70
2023-02-08T15:39:38.556Z,18.13
2023-02-08T15:42:07.123Z,19.27
2023-02-08T15:44:36.135Z,18.10
2023-02-08T15:47:06.573Z,18.27
2023-02-08T15:49:37.678Z,18.27
2023-02-08T15:52:08.532Z,18.30
2023-02-08T15:54:38.241Z,17.80
2023-02-08T15:57:09.873Z,17.60
2023-02-08T15:59:41.265Z,17.60
2023-02-08T16:02:24.386Z,17.87
2023-02-08T16:04:52.614Z,17.70
2023-02-08T16:07:28.207Z,17.43
2023-02-08T16:09:58.952Z,17.47
2023-02-08T16:12:29.014Z,17.47
2023-02-08T16:14:57.838Z,17.57
2023-02-08T16:17:34.677Z,17.70
2023-02-08T16:20:03.333Z,18.47
2023-02-08T16:22:34.517Z,18.00
2023-02-08T16:25:34.161Z,20.57
2023-02-08T16:28:03.649Z,18.17
2023-02-08T16:30:32.385Z,17.80
2023-02-08T16:33:09.414Z,17.90
2023-02-08T16:35:39.874Z,17.20
2023-02-08T16:38:10.735Z,16.70
2023-02-08T16:40:49.234Z,16.27
2023-02-08T16:43:19.946Z,16.17
2023-02-08T16:46:14.056Z,16.90
2023-02-08T16:48:46.543Z,17.57
2023-02-08T16:51:22.281Z,17.50
2023-02-08T16:53:53.765Z,16.60
2023-02-08T16:56:25.730Z,16.77
2023-02-08T16:58:55.378Z,16.20
2023-02-08T17:01:25.188Z,18.57
2023-02-08T17:03:53.865Z,16.77
2023-02-08T17:06:29.530Z,16.50
2023-02-08T17:08:58.042Z,16.20
2023-02-08T17:11:27.704Z,17.10
2023-02-08T17:13:56.075Z,18.73
2023-02-08T17:16:26.187Z,17.00
2023-02-08T17:18:54.305Z,18.43
2023-02-08T17:21:23.789Z,19.25
2023-02-08T17:23:54.306Z,18.50
2023-02-08T17:26:28.609Z,17.43
2023-02-08T17:29:01.033Z,17.33
2023-02-08T17:31:31.554Z,17.27
2023-02-08T17:34:04.836Z,17.60
2023-02-08T17:36:37.057Z,18.20
2023-02-08T17:39:07.776Z,16.90
2023-02-08T17:41:37.629Z,17.63
2023-02-08T17:44:09.010Z,17.17
2023-02-08T17:46:38.385Z,18.30
2023-02-08T17:49:08.545Z,17.60
2023-02-08T17:51:38.128Z,18.40
2023-02-08T17:54:08.079Z,17.60
2023-02-08T17:56:37.726Z,17.70
2023-02-08T17:59:09.523Z,20.10
2023-02-08T18:01:39.153Z,17.40
2023-02-08T18:04:11.618Z,17.10
2023-02-08T18:06:41.282Z,18.87
2023-02-08T18:09:11.874Z,16.90
2023-02-08T18:11:40.717Z,16.70
2023-02-08T18:14:10.466Z,17.00
2023-02-08T18:16:38.836Z,17.37
2023-02-08T18:19:07.320Z,17.67
2023-02-08T18:21:35.733Z,18.20
2023-02-08T18:24:04.922Z,17.40
2023-02-08T18:26:34.656Z,17.93
2023-02-08T18:29:03.528Z,16.57
2023-02-08T18:31:33.739Z,17.23
2023-02-08T18:34:02.359Z,17.53
2023-02-08T18:36:30.840Z,19.27
2023-02-08T18:38:59.632Z,17.33
2023-02-08T18:41:30.308Z,17.27
2023-02-08T18:44:00.148Z,17.90
2023-02-08T18:46:29.919Z,16.47
2023-02-08T18:48:59.873Z,16.50
2023-02-08T18:51:29.872Z,16.67
2023-02-08T18:53:58.516Z,17.00
2023-02-08T18:56:29.159Z,16.37
2023-02-08T18:59:00.745Z,16.67
2023-02-08T19:01:29.145Z,17.17
2023-02-08T19:03:59.535Z,18.57
2023-02-08T19:06:31.335Z,18.63
2023-02-08T19:09:02.841Z,20.07
2023-02-08T19:11:34.090Z,18.33
2023-02-08T19:14:05.611Z,16.70
2023-02-08T19:16:35.143Z,17.27
2023-02-08T19:19:05.123Z,17.60
2023-02-08T19:21:34.756Z,17.60
2023-02-08T19:24:03.859Z,18.50
2023-02-08T19:26:33.726Z,16.97
2023-02-08T19:29:03.564Z,20.73
2023-02-08T19:31:32.443Z,17.90
2023-02-08T19:34:03.268Z,18.60
2023-02-08T19:36:34.974Z,18.57
2023-02-08T19:39:03.609Z,17.73
2023-02-08T19:41:34.522Z,19.60
2023-02-08T19:44:04.674Z,17.63
2023-02-08T19:46:34.463Z,17.60
2023-02-08T19:49:03.105Z,17.37
2023-02-08T19:51:34.729Z,17.30
2023-02-08T19:54:03.706Z,17.40
2023-02-08T19:56:33.689Z,17.23
2023-02-08T19:59:02.550Z,18.90
2023-02-08T20:01:33.045Z,32.80
2023-02-08T20:04:02.771Z,17.50
2023-02-08T20:06:36.649Z,17.60
2023-02-08T20:09:05.384Z,17.70
2023-02-08T20:11:38.702Z,18.03
2023-02-08T20:14:14.389Z,18.10
2023-02-08T20:16:42.655Z,18.97
2023-02-08T20:19:11.403Z,19.03
2023-02-08T20:21:41.103Z,18.40
2023-02-08T20:24:10.173Z,18.90
2023-02-08T20:26:41.331Z,18.60
2023-02-08T20:29:10.200Z,18.80
2023-02-08T20:31:40.984Z,19.47
2023-02-08T20:34:12.237Z,18.50
2023-02-08T20:36:49.534Z,18.30
2023-02-08T20:39:22.870Z,18.30
2023-02-08T20:41:51.177Z,17.83
2023-02-08T20:44:19.832Z,17.90
2023-02-08T20:46:47.961Z,18.60
2023-02-08T20:49:22.024Z,18.50
2023-02-08T20:51:53.999Z,18.27
2023-02-08T20:54:24.467Z,19.47
2023-02-08T20:56:54.166Z,19.33
2023-02-08T20:59:22.404Z,17.90
2023-02-08T21:01:50.866Z,19.10
2023-02-08T21:04:20.382Z,20.03
2023-02-08T21:06:48.670Z,18.30
2023-02-08T21:09:19.425Z,18.20
2023-02-08T21:11:48.291Z,18.10
2023-02-08T21:14:20.665Z,18.70
2023-02-08T21:16:51.273Z,18.13
2023-02-08T21:19:21.065Z,18.10
2023-02-08T21:21:52.229Z,19.03
2023-02-08T21:24:23.876Z,18.80
2023-02-08T21:26:52.293Z,18.10
2023-02-08T21:29:20.880Z,18.30
2023-02-08T21:31:51.764Z,18.57
2023-02-08T21:34:20.765Z,19.13
2023-02-08T21:36:49.157Z,19.20
2023-02-08T21:39:17.329Z,18.57
2023-02-08T21:41:48.264Z,19.10
2023-02-08T21:44:16.591Z,22.30
2023-02-08T21:46:44.661Z,19.10
2023-02-08T21:49:30.287Z,19.47
2023-02-08T21:52:15.807Z,19.37
2023-02-08T21:54:44.565Z,20.10
2023-02-08T21:57:18.587Z,19.90
2023-02-08T21:59:48.235Z,19.03
2023-02-08T22:02:21.735Z,18.90
2023-02-08T22:04:50.618Z,19.20
2023-02-08T22:07:18.799Z,20.30
2023-02-08T22:09:46.889Z,18.90
2023-02-08T22:12:18.790Z,19.47
2023-02-08T22:14:47.328Z,19.23
2023-02-08T22:17:15.782Z,19.60
2023-02-08T22:19:44.489Z,19.60
2023-02-08T22:22:13.277Z,19.90
2023-02-08T22:24:41.494Z,19.83
2023-02-08T22:27:10.064Z,19.80
2023-02-08T22:29:39.807Z,19.50
2023-02-08T22:32:09.881Z,19.13
2023-02-08T22:34:38.748Z,19.30
2023-02-08T22:37:06.804Z,21.23
2023-02-08T22:39:35.757Z,19.07
2023-02-08T22:42:08.185Z,20.30
2023-02-08T22:44:37.186Z,21.23
2023-02-08T22:47:08.081Z,19.40
2023-02-08T22:49:37.213Z,19.17
2023-02-08T22:52:06.617Z,19.83
2023-02-08T22:54:35.148Z,19.10
2023-02-08T22:57:03.326Z,18.90
2023-02-08T22:59:31.478Z,19.90
2023-02-08T23:02:01.597Z,19.20
2023-02-08T23:04:31.655Z,19.07
2023-02-08T23:07:00.732Z,19.27
2023-02-08T23:09:28.920Z,19.90
2023-02-08T23:11:57.067Z,19.60
2023-02-08T23:14:26.075Z,19.63
2023-02-08T23:16:54.268Z,19.90
2023-02-08T23:19:22.443Z,19.40
2023-02-08T23:21:52.174Z,19.57
2023-02-08T23:24:20.345Z,20.03
2023-02-08T23:26:48.769Z,20.00
2023-02-08T23:29:16.975Z,20.20
2023-02-08T23:31:45.774Z,20.37
2023-02-08T23:34:14.140Z,31.23
2023-02-08T23:36:42.643Z,21.03
2023-02-08T23:39:12.140Z,20.10
2023-02-08T23:41:40.343Z,24.37
2023-02-08T23:44:08.392Z,20.30
2023-02-08T23:46:36.464Z,20.70
2023-02-08T23:49:04.671Z,20.70
2023-02-08T23:51:32.716Z,21.70
2023-02-08T23:54:00.801Z,19.90
2023-02-08T23:56:31.987Z,19.90
2023-02-08T23:59:00.636Z,19.80
